Time;durP1;ratioP1;P1;durP2;ratioP2;P2;SDS_P1;SDS_P2;PMS_P1;PMS_P2;Temp;Humidity;BMP_temperature;BMP_pressure;BME280_temperature;BME280_humidity;BME280_pressure;Samples;Min_cycle;Max_cycle;Signal;HPM_P1;HPM_P2
2022/06/29 00:00:56;;;;;;;10.10;9.23;;;;;;;;;;5017867;28;20108;-76
2022/06/29 00:03:21;;;;;;;9.52;8.57;;;;;;;;;;5024751;28;20120;-75
2022/06/29 00:05:47;;;;;;;9.32;8.43;;;;;;;;;;5018081;28;20423;-76
2022/06/29 00:08:14;;;;;;;9.88;9.07;;;;;;;;;;5018077;28;20505;-76
2022/06/29 00:10:40;;;;;;;9.80;9.00;;;;;;;;;;5012996;28;20060;-76
2022/06/29 00:13:06;;;;;;;10.23;9.05;;;;;;;;;;5017138;28;20076;-76
2022/06/29 00:15:32;;;;;;;9.95;9.05;;;;;;;;;;5013490;28;20049;-76
2022/06/29 00:17:58;;;;;;;13.00;9.63;;;;;;;;;;5016574;28;20125;-75
2022/06/29 00:20:24;;;;;;;11.27;10.18;;;;;;;;;;5020747;28;20072;-76
2022/06/29 00:22:50;;;;;;;9.63;8.90;;;;;;;;;;5022874;28;20030;-75
2022/06/29 00:25:16;;;;;;;9.30;8.60;;;;;;;;;;5015064;28;20115;-76
2022/06/29 00:27:43;;;;;;;10.23;9.27;;;;;;;;;;5012556;28;20088;-75
2022/06/29 00:30:09;;;;;;;9.90;9.13;;;;;;;;;;5019699;28;20047;-76
2022/06/29 00:32:35;;;;;;;9.80;9.00;;;;;;;;;;5012742;28;20124;-75
2022/06/29 00:35:01;;;;;;;10.18;9.23;;;;;;;;;;5020525;28;20492;-76
2022/06/29 00:37:27;;;;;;;10.13;9.15;;;;;;;;;;5016823;28;20596;-76
2022/06/29 00:39:52;;;;;;;10.23;9.40;;;;;;;;;;5023540;28;20033;-76
2022/06/29 00:42:18;;;;;;;10.48;9.43;;;;;;;;;;5013846;28;20660;-76
2022/06/29 00:44:44;;;;;;;10.05;9.25;;;;;;;;;;5021656;28;20034;-76
2022/06/29 00:47:09;;;;;;;11.00;9.90;;;;;;;;;;5023972;28;20052;-76
2022/06/29 00:49:35;;;;;;;11.90;9.20;;;;;;;;;;5017434;28;20080;-75
2022/06/29 00:52:10;;;;;;;10.73;9.68;;;;;;;;;;5012830;28;20085;-75
2022/06/29 00:54:39;;;;;;;10.68;9.60;;;;;;;;;;5020819;28;20125;-76
2022/06/29 00:57:14;;;;;;;10.85;9.90;;;;;;;;;;5012984;28;20041;-76
2022/06/29 00:59:48;;;;;;;11.73;10.57;;;;;;;;;;5019366;28;20069;-76
2022/06/29 01:02:19;;;;;;;11.40;10.30;;;;;;;;;;5019060;28;20033;-76
2022/06/29 01:04:46;;;;;;;10.98;10.07;;;;;;;;;;5023033;28;20084;-76
2022/06/29 01:07:13;;;;;;;11.68;10.48;;;;;;;;;;5013546;28;20033;-76
2022/06/29 01:09:40;;;;;;;11.20;10.10;;;;;;;;;;5019995;28;20037;-75
2022/06/29 01:12:06;;;;;;;11.57;10.57;;;;;;;;;;5017762;28;20580;-76
2022/06/29 01:14:31;;;;;;;11.63;10.52;;;;;;;;;;5014489;28;20046;-75
2022/06/29 01:16:57;;;;;;;11.63;10.50;;;;;;;;;;5016808;28;20585;-75
2022/06/29 01:19:23;;;;;;;11.30;10.40;;;;;;;;;;5023368;28;20045;-76
2022/06/29 01:21:52;;;;;;;11.90;10.80;;;;;;;;;;5016045;28;20037;-76
2022/06/29 01:24:20;;;;;;;11.55;10.55;;;;;;;;;;5013986;28;20061;-76
2022/06/29 01:26:46;;;;;;;11.13;10.23;;;;;;;;;;5017650;28;20057;-76
2022/06/29 01:29:11;;;;;;;10.95;10.02;;;;;;;;;;5013838;28;20076;-76
2022/06/29 01:31:37;;;;;;;12.32;10.68;;;;;;;;;;5015006;28;20124;-76
2022/06/29 01:34:02;;;;;;;11.93;10.93;;;;;;;;;;5011495;28;20653;-76
2022/06/29 01:36:28;;;;;;;12.38;11.15;;;;;;;;;;5016459;28;20041;-75
2022/06/29 01:38:53;;;;;;;12.02;10.80;;;;;;;;;;5014957;28;20448;-76
2022/06/29 01:41:19;;;;;;;12.70;11.23;;;;;;;;;;5016295;28;20041;-75
2022/06/29 01:43:45;;;;;;;12.77;11.68;;;;;;;;;;5013873;28;20065;-76
2022/06/29 01:46:11;;;;;;;13.45;11.85;;;;;;;;;;5017049;28;20137;-76
2022/06/29 01:48:36;;;;;;;13.90;12.40;;;;;;;;;;5011556;28;20059;-76
2022/06/29 01:51:02;;;;;;;15.40;13.40;;;;;;;;;;5017531;28;20086;-76
2022/06/29 01:53:28;;;;;;;13.98;12.73;;;;;;;;;;5010139;28;20548;-77
2022/06/29 01:55:55;;;;;;;14.63;13.27;;;;;;;;;;5024129;28;20040;-76
2022/06/29 01:58:20;;;;;;;12.85;11.73;;;;;;;;;;5013994;28;20042;-76
2022/06/29 02:00:46;;;;;;;14.02;12.68;;;;;;;;;;5013579;28;20029;-76
2022/06/29 02:03:14;;;;;;;13.85;12.40;;;;;;;;;;5009482;28;20040;-76
2022/06/29 02:05:39;;;;;;;13.45;12.32;;;;;;;;;;5018394;28;20057;-76
2022/06/29 02:08:06;;;;;;;13.63;12.27;;;;;;;;;;5020132;28;20068;-77
2022/06/29 02:10:32;;;;;;;14.35;12.63;;;;;;;;;;5023765;28;20038;-76
2022/06/29 02:12:57;;;;;;;14.63;13.23;;;;;;;;;;5012616;28;20037;-76
2022/06/29 02:15:26;;;;;;;14.20;12.32;;;;;;;;;;5020089;28;20033;-75
2022/06/29 02:17:52;;;;;;;14.65;12.82;;;;;;;;;;5014874;28;20069;-76
2022/06/29 02:20:18;;;;;;;12.82;11.82;;;;;;;;;;5013248;28;20041;-76
2022/06/29 02:22:44;;;;;;;13.80;12.40;;;;;;;;;;5016834;28;20034;-76
2022/06/29 02:25:10;;;;;;;13.63;12.30;;;;;;;;;;5013422;28;20057;-76
2022/06/29 02:27:40;;;;;;;13.95;12.63;;;;;;;;;;5013370;28;20069;-76
2022/06/29 02:30:10;;;;;;;18.15;13.63;;;;;;;;;;5017454;28;20037;-75
2022/06/29 02:35:20;;;;;;;13.88;12.68;;;;;;;;;;5018638;28;20029;-75
2022/06/29 02:37:46;;;;;;;13.20;11.93;;;;;;;;;;5016338;28;20080;-77
2022/06/29 02:40:11;;;;;;;14.20;12.85;;;;;;;;;;5016334;28;20052;-77
2022/06/29 02:42:37;;;;;;;14.50;13.10;;;;;;;;;;5015821;28;20041;-77
2022/06/29 02:45:03;;;;;;;14.55;12.18;;;;;;;;;;5022162;28;20037;-75
2022/06/29 02:47:28;;;;;;;16.10;13.15;;;;;;;;;;5015647;28;20038;-76
2022/06/29 02:49:54;;;;;;;16.45;12.95;;;;;;;;;;5013573;28;20037;-76
2022/06/29 02:52:20;;;;;;;14.63;12.90;;;;;;;;;;5014573;28;20393;-77
2022/06/29 02:54:45;;;;;;;14.15;12.95;;;;;;;;;;5013626;28;20051;-77
2022/06/29 02:57:11;;;;;;;14.27;13.00;;;;;;;;;;5022886;28;20033;-76
2022/06/29 02:59:37;;;;;;;17.23;12.70;;;;;;;;;;5018099;28;20389;-77
2022/06/29 03:02:03;;;;;;;14.70;13.30;;;;;;;;;;5012609;28;20029;-76
2022/06/29 03:04:28;;;;;;;15.05;13.63;;;;;;;;;;5015330;28;20053;-76
2022/06/29 03:06:54;;;;;;;18.58;14.45;;;;;;;;;;5010320;28;20059;-77
2022/06/29 03:09:20;;;;;;;15.15;13.85;;;;;;;;;;5025305;28;20640;-77
2022/06/29 03:11:45;;;;;;;15.95;14.45;;;;;;;;;;5016111;28;20113;-76
2022/06/29 03:14:11;;;;;;;16.40;14.90;;;;;;;;;;5010959;28;20034;-76
2022/06/29 03:16:37;;;;;;;16.13;14.52;;;;;;;;;;5015693;28;20033;-76
2022/06/29 03:19:02;;;;;;;16.80;15.20;;;;;;;;;;5012711;28;20452;-76
2022/06/29 03:21:28;;;;;;;16.40;14.68;;;;;;;;;;5019979;28;20030;-76
2022/06/29 03:23:54;;;;;;;14.75;13.35;;;;;;;;;;5012912;28;20113;-75
2022/06/29 03:26:19;;;;;;;16.35;14.73;;;;;;;;;;5017092;28;20064;-75
2022/06/29 03:28:45;;;;;;;19.85;15.13;;;;;;;;;;5014364;28;20029;-75
2022/06/29 03:31:11;;;;;;;17.17;15.48;;;;;;;;;;5013454;28;20057;-75
2022/06/29 03:33:37;;;;;;;17.10;14.98;;;;;;;;;;5021831;28;20033;-75
2022/06/29 03:36:02;;;;;;;15.98;14.48;;;;;;;;;;5013373;28;20655;-75
2022/06/29 03:38:28;;;;;;;15.63;14.02;;;;;;;;;;5011696;28;20036;-75
2022/06/29 03:40:54;;;;;;;15.00;13.65;;;;;;;;;;5014144;28;20038;-75
2022/06/29 03:43:19;;;;;;;15.57;14.07;;;;;;;;;;5016319;28;20124;-75
2022/06/29 03:45:45;;;;;;;15.93;14.27;;;;;;;;;;5018985;28;20029;-75
2022/06/29 03:48:11;;;;;;;14.98;13.68;;;;;;;;;;5020058;28;20048;-75
2022/06/29 03:50:37;;;;;;;16.20;14.27;;;;;;;;;;5016758;28;20030;-75
2022/06/29 03:53:02;;;;;;;15.77;14.02;;;;;;;;;;5020480;28;20033;-76
2022/06/29 03:55:28;;;;;;;16.35;14.40;;;;;;;;;;5020085;28;20030;-76
2022/06/29 03:57:53;;;;;;;15.90;14.48;;;;;;;;;;5017017;28;20026;-76
2022/06/29 04:00:19;;;;;;;16.23;14.73;;;;;;;;;;5026988;28;20033;-76
2022/06/29 04:02:46;;;;;;;16.38;14.55;;;;;;;;;;5011667;28;20037;-75
2022/06/29 04:05:12;;;;;;;15.00;13.70;;;;;;;;;;5020850;28;20042;-75
2022/06/29 04:07:38;;;;;;;15.85;13.45;;;;;;;;;;5017242;28;20048;-75
2022/06/29 04:10:04;;;;;;;14.52;13.23;;;;;;;;;;5017893;28;20092;-76
2022/06/29 04:12:31;;;;;;;15.20;13.52;;;;;;;;;;5018055;28;20536;-75
2022/06/29 04:14:57;;;;;;;15.00;13.15;;;;;;;;;;5023895;28;20544;-75
2022/06/29 04:17:23;;;;;;;14.25;12.85;;;;;;;;;;5024254;28;20251;-75
2022/06/29 04:19:51;;;;;;;13.40;12.10;;;;;;;;;;5020142;28;20022;-76
2022/06/29 04:22:18;;;;;;;13.38;12.27;;;;;;;;;;5016488;28;20034;-74
2022/06/29 04:24:44;;;;;;;13.43;12.18;;;;;;;;;;5017316;28;20512;-75
2022/06/29 04:27:10;;;;;;;12.55;11.55;;;;;;;;;;5019877;28;20056;-76
2022/06/29 04:29:36;;;;;;;12.90;11.52;;;;;;;;;;5015267;28;20041;-75
2022/06/29 04:32:02;;;;;;;11.98;10.98;;;;;;;;;;5014760;28;20030;-75
2022/06/29 04:34:28;;;;;;;12.95;10.30;;;;;;;;;;5016954;28;20030;-76
2022/06/29 04:36:53;;;;;;;11.88;10.77;;;;;;;;;;5021788;28;20396;-75
2022/06/29 04:39:19;;;;;;;10.93;10.05;;;;;;;;;;5022243;28;20036;-75
2022/06/29 04:41:45;;;;;;;10.70;9.80;;;;;;;;;;5021639;28;20515;-74
2022/06/29 04:44:11;;;;;;;11.18;10.27;;;;;;;;;;5015035;28;20029;-75
2022/06/29 04:46:36;;;;;;;12.32;11.15;;;;;;;;;;5017158;28;20034;-75
2022/06/29 04:49:03;;;;;;;12.13;11.13;;;;;;;;;;5015406;28;20033;-75
2022/06/29 04:51:31;;;;;;;14.00;11.00;;;;;;;;;;5026253;28;20440;-75
2022/06/29 04:53:58;;;;;;;12.60;11.38;;;;;;;;;;5017079;28;20045;-75
2022/06/29 04:56:32;;;;;;;14.25;11.40;;;;;;;;;;5020140;28;20053;-75
2022/06/29 04:58:59;;;;;;;12.85;11.57;;;;;;;;;;5017125;28;20021;-75
2022/06/29 05:01:26;;;;;;;12.77;11.68;;;;;;;;;;5017018;28;20037;-75
2022/06/29 05:03:53;;;;;;;13.52;11.80;;;;;;;;;;5020905;28;20033;-75
2022/06/29 05:06:20;;;;;;;12.68;11.38;;;;;;;;;;5020038;28;20079;-74
2022/06/29 05:08:47;;;;;;;13.68;12.25;;;;;;;;;;5022842;28;20065;-75
2022/06/29 05:11:17;;;;;;;13.05;11.95;;;;;;;;;;5017310;28;20487;-75
2022/06/29 05:13:44;;;;;;;13.10;11.88;;;;;;;;;;5020878;28;20033;-75
2022/06/29 05:16:10;;;;;;;12.70;11.60;;;;;;;;;;5015492;28;20519;-75
2022/06/29 05:18:37;;;;;;;12.48;10.95;;;;;;;;;;5017995;28;20030;-75
2022/06/29 05:21:03;;;;;;;12.38;11.30;;;;;;;;;;5018220;28;20600;-75
2022/06/29 05:23:30;;;;;;;11.63;10.55;;;;;;;;;;5009276;28;20079;-75
2022/06/29 05:25:57;;;;;;;11.88;10.88;;;;;;;;;;5014802;28;20071;-75
2022/06/29 05:28:22;;;;;;;12.10;10.90;;;;;;;;;;5014039;28;20038;-74
2022/06/29 05:30:50;;;;;;;12.23;11.18;;;;;;;;;;5021702;28;20507;-75
2022/06/29 05:33:16;;;;;;;12.35;11.27;;;;;;;;;;5010961;28;20045;-76
2022/06/29 05:35:42;;;;;;;12.50;11.50;;;;;;;;;;5019342;28;20034;-75
2022/06/29 05:38:08;;;;;;;11.98;10.77;;;;;;;;;;5013929;28;20401;-75
2022/06/29 05:40:34;;;;;;;12.45;11.32;;;;;;;;;;5022894;28;20033;-76
2022/06/29 05:42:59;;;;;;;13.05;10.80;;;;;;;;;;5017916;28;20173;-75
2022/06/29 05:45:26;;;;;;;12.13;11.13;;;;;;;;;;5017377;28;20042;-75
2022/06/29 05:47:53;;;;;;;12.90;10.88;;;;;;;;;;5025190;28;20025;-75
2022/06/29 05:50:20;;;;;;;11.73;10.73;;;;;;;;;;5013500;28;20038;-75
2022/06/29 05:52:45;;;;;;;12.10;11.20;;;;;;;;;;5013547;28;20757;-75
2022/06/29 05:55:11;;;;;;;11.82;10.88;;;;;;;;;;5017844;28;20120;-74
2022/06/29 05:57:36;;;;;;;12.02;10.93;;;;;;;;;;5011617;28;20033;-74
2022/06/29 06:00:04;;;;;;;11.48;10.57;;;;;;;;;;5012780;28;20109;-74
2022/06/29 06:02:38;;;;;;;11.45;10.52;;;;;;;;;;5015187;28;20034;-74
2022/06/29 06:05:04;;;;;;;11.85;10.75;;;;;;;;;;5017910;28;20037;-74
2022/06/29 06:07:29;;;;;;;12.57;11.48;;;;;;;;;;5021668;28;20448;-74
2022/06/29 06:09:55;;;;;;;12.05;10.93;;;;;;;;;;5011406;28;20073;-74
2022/06/29 06:12:20;;;;;;;14.65;11.05;;;;;;;;;;5020193;28;20505;-74
2022/06/29 06:14:46;;;;;;;13.15;11.85;;;;;;;;;;5020356;28;20026;-74
2022/06/29 06:17:11;;;;;;;12.05;11.05;;;;;;;;;;5016236;28;20041;-74
2022/06/29 06:19:37;;;;;;;12.90;11.70;;;;;;;;;;5013339;28;20614;-75
2022/06/29 06:22:03;;;;;;;11.80;10.80;;;;;;;;;;5014550;28;20374;-74
2022/06/29 06:24:29;;;;;;;12.02;11.02;;;;;;;;;;5022194;28;20768;-74
2022/06/29 06:26:54;;;;;;;13.07;11.13;;;;;;;;;;5013908;28;20034;-74
2022/06/29 06:29:20;;;;;;;12.05;10.77;;;;;;;;;;5010814;28;20161;-74
2022/06/29 06:31:46;;;;;;;11.30;10.30;;;;;;;;;;5015717;28;20460;-75
2022/06/29 06:34:11;;;;;;;11.45;10.48;;;;;;;;;;5015921;28;20041;-75
2022/06/29 06:36:37;;;;;;;12.75;11.48;;;;;;;;;;5017179;28;20048;-74
2022/06/29 06:39:03;;;;;;;11.20;10.20;;;;;;;;;;5016331;28;20026;-74
2022/06/29 06:41:28;;;;;;;12.02;10.55;;;;;;;;;;5014492;28;20030;-74
2022/06/29 06:43:56;;;;;;;11.20;10.07;;;;;;;;;;5016050;28;20041;-74
2022/06/29 06:46:22;;;;;;;11.13;10.07;;;;;;;;;;5010526;28;20049;-75
2022/06/29 06:48:52;;;;;;;10.60;9.70;;;;;;;;;;5016365;28;20030;-74
2022/06/29 06:51:19;;;;;;;17.38;9.75;;;;;;;;;;5015395;28;20516;-75
2022/06/29 06:53:46;;;;;;;14.48;9.55;;;;;;;;;;5013484;28;20041;-74
2022/06/29 06:56:12;;;;;;;11.40;9.68;;;;;;;;;;5013524;28;20038;-75
2022/06/29 06:58:38;;;;;;;9.52;8.73;;;;;;;;;;5011124;28;21511;-75
2022/06/29 07:01:08;;;;;;;9.98;8.68;;;;;;;;;;5020534;28;20029;-75
2022/06/29 07:03:37;;;;;;;9.95;9.00;;;;;;;;;;5011574;28;20481;-75
2022/06/29 07:06:08;;;;;;;8.73;8.02;;;;;;;;;;5015392;28;20581;-76
2022/06/29 07:08:35;;;;;;;9.27;8.52;;;;;;;;;;5017407;28;20073;-75
2022/06/29 07:11:03;;;;;;;8.27;7.55;;;;;;;;;;5024285;28;20589;-75
2022/06/29 07:13:29;;;;;;;9.10;8.35;;;;;;;;;;5017762;28;20112;-76
2022/06/29 07:15:55;;;;;;;8.80;8.07;;;;;;;;;;5014386;28;20141;-75
2022/06/29 07:18:21;;;;;;;8.90;8.30;;;;;;;;;;5016511;28;20463;-75
2022/06/29 07:20:47;;;;;;;8.25;7.60;;;;;;;;;;5015805;28;20040;-76
2022/06/29 07:23:13;;;;;;;9.88;8.02;;;;;;;;;;5017338;28;20030;-75
2022/06/29 07:25:39;;;;;;;12.50;8.32;;;;;;;;;;5019605;28;20190;-75
2022/06/29 07:28:05;;;;;;;10.00;8.05;;;;;;;;;;5021088;28;20176;-75
2022/06/29 07:30:31;;;;;;;9.05;6.88;;;;;;;;;;5012504;28;20244;-75
2022/06/29 07:32:57;;;;;;;9.57;7.55;;;;;;;;;;5017296;28;20393;-75
2022/06/29 07:35:23;;;;;;;7.80;7.00;;;;;;;;;;5025673;28;20037;-73
2022/06/29 07:37:50;;;;;;;8.82;7.15;;;;;;;;;;5017828;28;20091;-75
2022/06/29 07:40:15;;;;;;;9.63;7.32;;;;;;;;;;5026063;28;20044;-75
2022/06/29 07:42:41;;;;;;;8.00;7.22;;;;;;;;;;5023372;28;20037;-74
2022/06/29 07:45:07;;;;;;;8.23;7.45;;;;;;;;;;5029162;28;20038;-75
2022/06/29 07:47:33;;;;;;;10.88;7.78;;;;;;;;;;5015940;28;20112;-74
2022/06/29 07:49:59;;;;;;;10.23;7.45;;;;;;;;;;5019114;28;20132;-75
2022/06/29 07:52:25;;;;;;;13.60;8.32;;;;;;;;;;5017971;28;20036;-75
2022/06/29 07:54:50;;;;;;;9.00;7.65;;;;;;;;;;5018523;28;20048;-77
2022/06/29 07:57:16;;;;;;;9.70;7.30;;;;;;;;;;5015602;28;20545;-75
2022/06/29 07:59:42;;;;;;;8.45;7.65;;;;;;;;;;5026500;28;20521;-75
2022/06/29 08:02:07;;;;;;;9.88;7.38;;;;;;;;;;5022054;28;20041;-75
2022/06/29 08:04:33;;;;;;;13.32;7.70;;;;;;;;;;5019009;28;20037;-75
2022/06/29 08:06:58;;;;;;;9.25;6.85;;;;;;;;;;5016183;28;20109;-76
2022/06/29 08:09:24;;;;;;;7.43;6.78;;;;;;;;;;5017968;28;20042;-75
2022/06/29 08:11:51;;;;;;;8.98;7.18;;;;;;;;;;5018862;28;20037;-76
2022/06/29 08:14:17;;;;;;;8.10;7.30;;;;;;;;;;5015277;28;20564;-75
2022/06/29 08:16:43;;;;;;;11.00;7.60;;;;;;;;;;5018574;28;20106;-76
2022/06/29 08:19:09;;;;;;;7.53;6.93;;;;;;;;;;5020966;28;20109;-74
2022/06/29 08:21:34;;;;;;;8.43;7.50;;;;;;;;;;5016433;28;20481;-72
2022/06/29 08:24:00;;;;;;;8.38;7.07;;;;;;;;;;5017903;28;20116;-72
2022/06/29 08:26:25;;;;;;;9.32;7.20;;;;;;;;;;5014584;28;20042;-73
2022/06/29 08:28:51;;;;;;;9.38;7.70;;;;;;;;;;5027282;28;20136;-73
2022/06/29 08:31:17;;;;;;;8.13;7.43;;;;;;;;;;5013010;28;20038;-73
2022/06/29 08:33:43;;;;;;;10.10;7.50;;;;;;;;;;5015294;28;20044;-73
2022/06/29 08:36:09;;;;;;;8.07;7.22;;;;;;;;;;5017052;28;20038;-73
2022/06/29 08:38:34;;;;;;;8.45;7.38;;;;;;;;;;5012716;28;20065;-73
2022/06/29 08:41:00;;;;;;;8.45;7.18;;;;;;;;;;5019986;28;20033;-72
2022/06/29 08:43:26;;;;;;;8.30;7.60;;;;;;;;;;5020104;28;20117;-72
2022/06/29 08:45:53;;;;;;;11.00;6.95;;;;;;;;;;5020152;28;20088;-72
2022/06/29 08:48:19;;;;;;;8.10;6.82;;;;;;;;;;5020017;28;20096;-73
2022/06/29 08:50:54;;;;;;;9.02;7.15;;;;;;;;;;5021060;28;20535;-73
2022/06/29 08:53:20;;;;;;;11.07;7.28;;;;;;;;;;5022076;28;20057;-73
2022/06/29 08:55:51;;;;;;;7.97;7.10;;;;;;;;;;5020244;28;20033;-73
2022/06/29 08:58:19;;;;;;;7.70;6.97;;;;;;;;;;5019121;28;20451;-73
2022/06/29 09:00:45;;;;;;;6.85;5.95;;;;;;;;;;5012933;28;20108;-73
2022/06/29 09:03:11;;;;;;;8.00;7.18;;;;;;;;;;5019993;28;20041;-73
2022/06/29 09:05:39;;;;;;;8.18;7.47;;;;;;;;;;5021657;28;20397;-73
2022/06/29 09:08:05;;;;;;;;;;;;;;;;;;5018597;28;20048;-73
2022/06/29 09:10:31;;;;;;;8.95;7.30;;;;;;;;;;5021824;28;19921;-73
2022/06/29 09:13:01;;;;;;;7.57;6.88;;;;;;;;;;5019132;28;20040;-72
2022/06/29 09:15:36;;;;;;;7.30;6.60;;;;;;;;;;5021956;28;20116;-72
2022/06/29 09:18:03;;;;;;;6.78;6.28;;;;;;;;;;5018349;28;20108;-72
2022/06/29 09:20:42;;;;;;;10.55;7.10;;;;;;;;;;5020976;28;20099;-72
2022/06/29 09:23:09;;;;;;;7.30;6.60;;;;;;;;;;5017180;28;20038;-72
2022/06/29 09:25:39;;;;;;;6.38;5.88;;;;;;;;;;5016830;28;20431;-72
2022/06/29 09:28:21;;;;;;;6.60;6.10;;;;;;;;;;5019434;28;20518;-72
2022/06/29 09:30:47;;;;;;;6.30;5.80;;;;;;;;;;5015313;28;20025;-72
2022/06/29 09:33:13;;;;;;;6.88;6.15;;;;;;;;;;5015532;28;20087;-72
2022/06/29 09:35:39;;;;;;;6.50;6.10;;;;;;;;;;5016615;28;20025;-72
2022/06/29 09:38:19;;;;;;;6.72;6.22;;;;;;;;;;5021822;28;20362;-72
2022/06/29 09:40:58;;;;;;;6.75;6.18;;;;;;;;;;5014343;28;20563;-72
2022/06/29 09:43:24;;;;;;;6.78;6.25;;;;;;;;;;5009527;28;20565;-72
2022/06/29 09:45:52;;;;;;;7.20;6.25;;;;;;;;;;5022492;28;20124;-72
2022/06/29 09:48:22;;;;;;;6.13;5.60;;;;;;;;;;5020133;28;20041;-72
2022/06/29 09:50:52;;;;;;;6.50;5.97;;;;;;;;;;5012700;28;20069;-72
2022/06/29 09:53:18;;;;;;;6.20;5.60;;;;;;;;;;5020307;28;20029;-71
2022/06/29 09:55:48;;;;;;;6.22;5.63;;;;;;;;;;5010888;28;20038;-71
2022/06/29 09:58:18;;;;;;;5.85;5.20;;;;;;;;;;5020299;28;20067;-71
2022/06/29 10:03:31;;;;;;;6.22;5.70;;;;;;;;;;5008611;28;20034;-73
2022/06/29 10:06:08;;;;;;;6.40;5.80;;;;;;;;;;5016507;28;20040;-73
2022/06/29 10:08:34;;;;;;;6.90;6.20;;;;;;;;;;5024487;28;20030;-73
2022/06/29 10:14:02;;;;;;;5.95;5.45;;;;;;;;;;5013482;28;20033;-73
2022/06/29 10:16:34;;;;;;;6.75;6.18;;;;;;;;;;5013318;28;20045;-73
2022/06/29 10:19:24;;;;;;;7.05;6.30;;;;;;;;;;5016187;28;20105;-73
2022/06/29 10:21:50;;;;;;;7.05;6.35;;;;;;;;;;5013095;28;20032;-73
2022/06/29 10:24:17;;;;;;;6.43;5.22;;;;;;;;;;5013639;28;20041;-73
2022/06/29 10:26:44;;;;;;;6.93;6.32;;;;;;;;;;5016686;28;20127;-73
2022/06/29 10:29:10;;;;;;;5.78;5.28;;;;;;;;;;5020092;28;20034;-73
2022/06/29 10:31:54;;;;;;;6.13;5.40;;;;;;;;;;5013893;28;20532;-73
2022/06/29 10:34:31;;;;;;;6.43;5.07;;;;;;;;;;5016430;28;20555;-74
2022/06/29 10:37:14;;;;;;;6.03;5.50;;;;;;;;;;5014950;28;20065;-73
2022/06/29 10:39:46;;;;;;;6.25;5.38;;;;;;;;;;5025075;28;20044;-73
2022/06/29 10:45:15;;;;;;;7.03;6.22;;;;;;;;;;5014324;28;20042;-73
2022/06/29 10:47:56;;;;;;;6.57;5.97;;;;;;;;;;5017438;28;20060;-73
2022/06/29 10:50:26;;;;;;;7.38;6.70;;;;;;;;;;5013404;28;20045;-73
2022/06/29 10:52:56;;;;;;;6.65;6.10;;;;;;;;;;5019088;28;20030;-73
2022/06/29 10:55:24;;;;;;;8.43;6.18;;;;;;;;;;5022592;28;20042;-73
2022/06/29 10:57:49;;;;;;;6.85;6.25;;;;;;;;;;5016495;28;20064;-72
2022/06/29 11:00:22;;;;;;;6.78;6.28;;;;;;;;;;5015509;28;20076;-73
2022/06/29 11:02:48;;;;;;;8.23;6.70;;;;;;;;;;5023027;28;20484;-72
2022/06/29 11:05:14;;;;;;;7.70;6.82;;;;;;;;;;5016553;28;20052;-72
2022/06/29 11:12:01;;;;;;;7.53;6.90;;;;;;;;;;5018873;28;20121;-72
2022/06/29 11:13:26;;;;;;;9.85;7.00;;;;;;;;;;5012371;28;20497;-73
2022/06/29 11:15:53;;;;;;;7.43;6.70;;;;;;;;;;5019512;28;20696;-73
2022/06/29 11:18:27;;;;;;;7.72;7.13;;;;;;;;;;5015373;28;20065;-73
2022/06/29 11:20:53;;;;;;;7.90;7.20;;;;;;;;;;5022113;28;20212;-72
2022/06/29 11:23:21;;;;;;;10.73;7.10;;;;;;;;;;5017520;28;20545;-72
2022/06/29 11:25:49;;;;;;;7.80;7.10;;;;;;;;;;5024060;28;20037;-73
2022/06/29 11:28:19;;;;;;;9.15;7.20;;;;;;;;;;5019535;28;20036;-73
2022/06/29 11:31:12;;;;;;;9.38;7.57;;;;;;;;;;5027134;28;20177;-72
2022/06/29 11:33:47;;;;;;;9.65;7.25;;;;;;;;;;5017551;28;20046;-72
2022/06/29 11:36:16;;;;;;;7.90;7.10;;;;;;;;;;5018760;28;20041;-72
2022/06/29 11:38:45;;;;;;;;;;;;;;;;;;5019210;28;20072;-73
2022/06/29 11:41:25;;;;;;;8.52;6.72;;;;;;;;;;5028600;28;19913;-73
2022/06/29 11:43:58;;;;;;;7.68;7.10;;;;;;;;;;5018205;28;20128;-73
2022/06/29 11:46:24;;;;;;;10.32;7.15;;;;;;;;;;5018199;28;20041;-73
2022/06/29 11:51:46;;;;;;;7.70;7.00;;;;;;;;;;5018553;28;20065;-73
2022/06/29 11:54:12;;;;;;;7.80;7.10;;;;;;;;;;5016589;28;20065;-72
2022/06/29 11:56:38;;;;;;;8.45;7.43;;;;;;;;;;5014746;28;20395;-74
2022/06/29 11:59:05;;;;;;;8.02;7.22;;;;;;;;;;5024494;28;20032;-74
2022/06/29 12:01:31;;;;;;;7.95;7.32;;;;;;;;;;5013827;28;20547;-73
2022/06/29 12:03:59;;;;;;;8.90;7.78;;;;;;;;;;5017941;28;20037;-73
2022/06/29 12:06:45;;;;;;;10.55;7.15;;;;;;;;;;5015090;28;20032;-72
2022/06/29 12:09:10;;;;;;;7.78;6.93;;;;;;;;;;5013082;28;20702;-73
2022/06/29 12:11:36;;;;;;;8.55;6.95;;;;;;;;;;5019807;28;20030;-73
2022/06/29 12:14:01;;;;;;;8.00;7.25;;;;;;;;;;5013242;28;20030;-73
2022/06/29 12:16:27;;;;;;;8.98;7.55;;;;;;;;;;5023351;28;20112;-73
2022/06/29 12:18:52;;;;;;;8.13;7.25;;;;;;;;;;5024591;28;20037;-73
2022/06/29 12:21:19;;;;;;;7.68;7.03;;;;;;;;;;5021973;28;20033;-73
2022/06/29 12:23:45;;;;;;;9.45;7.20;;;;;;;;;;5011047;28;20140;-73
2022/06/29 12:26:10;;;;;;;11.60;7.57;;;;;;;;;;5017645;28;20833;-73
2022/06/29 12:28:38;;;;;;;8.23;7.32;;;;;;;;;;5016420;28;20069;-73
2022/06/29 12:31:04;;;;;;;7.18;6.05;;;;;;;;;;5021433;28;20508;-73
2022/06/29 12:33:30;;;;;;;7.22;6.60;;;;;;;;;;5013505;28;20033;-73
2022/06/29 12:35:55;;;;;;;7.03;6.32;;;;;;;;;;5014781;28;20038;-73
2022/06/29 12:38:21;;;;;;;7.07;6.47;;;;;;;;;;5018988;28;20155;-73
2022/06/29 12:40:46;;;;;;;7.38;6.47;;;;;;;;;;5011660;28;20083;-73
2022/06/29 12:43:12;;;;;;;7.95;7.15;;;;;;;;;;5028583;23;20045;-68
2022/06/29 12:45:38;;;;;;;7.50;6.80;;;;;;;;;;5019050;28;20439;-68
2022/06/29 12:48:04;;;;;;;7.90;7.10;;;;;;;;;;5015710;28;20300;-69
2022/06/29 12:50:29;;;;;;;7.95;7.15;;;;;;;;;;5013972;28;20038;-67
2022/06/29 12:52:55;;;;;;;8.07;7.30;;;;;;;;;;5023730;28;20044;-67
2022/06/29 12:55:21;;;;;;;7.65;6.95;;;;;;;;;;5027274;28;20498;-67
2022/06/29 12:57:47;;;;;;;8.10;7.00;;;;;;;;;;5027414;28;20041;-69
2022/06/29 13:00:15;;;;;;;10.18;7.00;;;;;;;;;;5027396;28;20037;-67
2022/06/29 13:02:40;;;;;;;8.02;7.20;;;;;;;;;;5024319;28;20480;-67
2022/06/29 13:05:10;;;;;;;7.55;6.90;;;;;;;;;;5026652;28;20060;-69
2022/06/29 13:07:38;;;;;;;8.15;6.70;;;;;;;;;;5027356;28;20117;-68
2022/06/29 13:10:07;;;;;;;;;;;;;;;;;;5026400;28;20041;-68
2022/06/29 13:12:34;;;;;;;8.32;7.40;;;;;;;;;;5024593;28;19917;-69
2022/06/29 13:15:00;;;;;;;7.75;6.97;;;;;;;;;;5026362;28;20416;-68
2022/06/29 13:17:26;;;;;;;7.60;7.00;;;;;;;;;;5027165;28;20033;-68
2022/06/29 13:19:51;;;;;;;7.10;6.50;;;;;;;;;;5027038;28;20059;-67
2022/06/29 13:22:17;;;;;;;7.15;6.65;;;;;;;;;;5024853;28;20045;-67
2022/06/29 13:24:43;;;;;;;9.18;6.78;;;;;;;;;;5027138;28;20063;-68
2022/06/29 13:27:09;;;;;;;8.10;7.30;;;;;;;;;;5026633;28;20535;-68
2022/06/29 13:29:35;;;;;;;8.18;7.45;;;;;;;;;;5026702;28;20033;-68
2022/06/29 13:32:01;;;;;;;7.72;6.97;;;;;;;;;;5026319;28;20396;-67
2022/06/29 13:34:28;;;;;;;8.23;7.18;;;;;;;;;;5026366;28;20037;-68
2022/06/29 13:36:54;;;;;;;7.75;7.05;;;;;;;;;;5026749;28;20516;-68
2022/06/29 13:39:21;;;;;;;7.50;6.82;;;;;;;;;;5023402;28;20044;-69
2022/06/29 13:41:47;;;;;;;7.53;6.70;;;;;;;;;;5026414;28;20034;-69
2022/06/29 13:44:13;;;;;;;8.13;7.20;;;;;;;;;;5025826;28;20124;-68
2022/06/29 13:46:42;;;;;;;8.27;7.32;;;;;;;;;;5024012;28;20349;-68
2022/06/29 13:49:08;;;;;;;9.93;7.45;;;;;;;;;;5026164;28;20508;-68
2022/06/29 13:51:34;;;;;;;10.43;7.22;;;;;;;;;;5026441;28;20033;-68
2022/06/29 13:54:00;;;;;;;7.95;7.15;;;;;;;;;;5025768;28;20052;-68
2022/06/29 13:56:27;;;;;;;9.35;7.20;;;;;;;;;;5023995;28;20037;-69
2022/06/29 13:58:53;;;;;;;8.63;7.15;;;;;;;;;;5024850;28;20079;-69
2022/06/29 14:01:19;;;;;;;11.45;6.93;;;;;;;;;;5025743;28;20503;-69
2022/06/29 14:03:45;;;;;;;8.75;7.30;;;;;;;;;;5023147;28;20041;-68
2022/06/29 14:06:10;;;;;;;8.30;7.53;;;;;;;;;;5025779;28;20037;-68
2022/06/29 14:08:36;;;;;;;9.38;7.22;;;;;;;;;;5025827;28;20029;-68
2022/06/29 14:11:02;;;;;;;8.10;7.20;;;;;;;;;;5026086;28;20037;-68
2022/06/29 14:13:29;;;;;;;8.13;7.30;;;;;;;;;;5024614;28;20033;-68
2022/06/29 14:15:55;;;;;;;8.13;7.38;;;;;;;;;;5024296;28;20033;-68
2022/06/29 14:18:21;;;;;;;7.90;7.20;;;;;;;;;;5026191;28;20033;-68
2022/06/29 14:20:46;;;;;;;7.90;7.20;;;;;;;;;;5025788;28;20044;-69
2022/06/29 14:23:13;;;;;;;7.60;6.80;;;;;;;;;;5023395;28;20488;-69
2022/06/29 14:25:39;;;;;;;8.05;6.72;;;;;;;;;;5025701;28;20490;-69
2022/06/29 14:28:04;;;;;;;8.68;6.70;;;;;;;;;;5025100;28;20099;-69
2022/06/29 14:30:30;;;;;;;11.93;7.03;;;;;;;;;;5025607;28;20041;-68
2022/06/29 14:32:56;;;;;;;7.82;7.13;;;;;;;;;;5018999;28;20041;-69
2022/06/29 14:35:21;;;;;;;8.27;6.82;;;;;;;;;;5023789;28;20458;-69
2022/06/29 14:37:47;;;;;;;7.32;6.63;;;;;;;;;;5025341;28;20045;-69
2022/06/29 14:40:13;;;;;;;8.75;7.10;;;;;;;;;;5025479;28;20392;-69
2022/06/29 14:42:39;;;;;;;8.73;7.03;;;;;;;;;;5020798;28;20530;-69
2022/06/29 14:45:05;;;;;;;8.93;7.18;;;;;;;;;;5021566;28;20045;-68
2022/06/29 14:47:31;;;;;;;8.52;7.38;;;;;;;;;;5022068;28;20036;-68